createdAt,value
2018-02-16T00:00:28.606Z,91.70
2018-02-16T00:02:56.032Z,91.70
2018-02-16T00:05:24.235Z,92.00
2018-02-16T00:07:51.720Z,91.70
2018-02-16T00:10:19.196Z,91.70
2018-02-16T00:12:46.627Z,91.60
2018-02-16T00:15:14.061Z,91.60
2018-02-16T00:17:42.252Z,91.60
2018-02-16T00:20:09.712Z,91.60
2018-02-16T00:22:37.144Z,91.60
2018-02-16T00:25:05.346Z,91.50
2018-02-16T00:27:32.785Z,91.50
2018-02-16T00:30:00.205Z,91.50
2018-02-16T00:32:27.757Z,91.40
2018-02-16T00:34:55.162Z,91.70
2018-02-16T00:37:22.588Z,91.40
2018-02-16T00:39:50.104Z,91.40
2018-02-16T00:42:17.556Z,91.40
2018-02-16T00:44:44.984Z,91.40
2018-02-16T00:47:12.411Z,91.30
2018-02-16T00:49:39.924Z,91.40
2018-02-16T00:52:07.388Z,91.40
2018-02-16T00:54:34.834Z,91.40
2018-02-16T00:57:02.312Z,91.40
2018-02-16T00:59:29.761Z,91.40
2018-02-16T01:01:57.184Z,91.40
2018-02-16T01:04:25.375Z,91.30
2018-02-16T01:06:52.849Z,91.30
2018-02-16T01:09:20.308Z,91.30
2018-02-16T01:11:47.755Z,91.30
2018-02-16T01:14:15.171Z,91.30
2018-02-16T01:16:43.368Z,91.30
2018-02-16T01:19:10.816Z,91.30
2018-02-16T01:21:39.017Z,91.30
2018-02-16T01:24:06.440Z,91.30
2018-02-16T01:26:34.667Z,91.30
2018-02-16T01:29:02.095Z,91.30
2018-02-16T01:31:29.573Z,91.30
2018-02-16T01:33:57.028Z,91.30
2018-02-16T01:36:24.469Z,91.30
2018-02-16T01:38:51.900Z,91.30
2018-02-16T01:41:20.120Z,91.30
2018-02-16T01:43:47.549Z,91.20
2018-02-16T01:46:15.005Z,91.20
2018-02-16T01:48:42.440Z,91.20
2018-02-16T01:51:10.664Z,91.20
2018-02-16T01:53:38.115Z,91.20
2018-02-16T01:56:05.537Z,91.20
2018-02-16T01:58:33.724Z,91.20
2018-02-16T02:01:01.148Z,91.10
2018-02-16T02:03:28.666Z,91.20
2018-02-16T02:05:56.100Z,91.20
2018-02-16T02:08:23.520Z,91.20
2018-02-16T02:10:50.963Z,91.20
2018-02-16T02:13:18.388Z,91.30
2018-02-16T02:15:46.609Z,91.20
2018-02-16T02:18:14.040Z,91.20
2018-02-16T02:20:41.476Z,91.30
2018-02-16T02:23:09.674Z,91.30
2018-02-16T02:25:37.111Z,91.30
2018-02-16T02:28:05.327Z,91.70
2018-02-16T02:30:32.753Z,91.40
2018-02-16T02:33:00.240Z,91.30
2018-02-16T02:35:27.661Z,91.30
2018-02-16T02:37:55.852Z,91.40
2018-02-16T02:40:23.292Z,91.40
2018-02-16T02:42:51.495Z,91.50
2018-02-16T02:45:18.921Z,91.40
2018-02-16T02:47:47.127Z,91.50
2018-02-16T02:50:14.629Z,91.50
2018-02-16T02:52:42.152Z,91.50
2018-02-16T02:55:09.607Z,91.50
2018-02-16T02:57:37.047Z,91.50
2018-02-16T03:00:04.469Z,91.50
2018-02-16T03:02:31.979Z,91.60
2018-02-16T03:04:59.408Z,91.90
2018-02-16T03:07:26.904Z,91.60
2018-02-16T03:09:54.348Z,91.70
2018-02-16T03:12:21.771Z,91.70
2018-02-16T03:14:49.964Z,91.70
2018-02-16T03:17:17.440Z,91.70
2018-02-16T03:19:44.896Z,91.70
2018-02-16T03:22:12.363Z,91.70
2018-02-16T03:24:39.803Z,91.70
2018-02-16T03:27:07.268Z,91.80
2018-02-16T03:29:34.721Z,91.80
2018-02-16T03:32:02.188Z,91.70
2018-02-16T03:34:29.615Z,91.70
2018-02-16T03:36:57.036Z,91.70
2018-02-16T03:39:24.480Z,91.70
2018-02-16T03:41:51.904Z,91.80
2018-02-16T03:44:19.368Z,91.80
2018-02-16T03:46:46.806Z,91.80
2018-02-16T03:49:14.312Z,91.80
2018-02-16T03:51:41.736Z,91.80
2018-02-16T03:54:09.177Z,91.80
2018-02-16T03:56:36.604Z,91.70
2018-02-16T03:59:04.791Z,91.90
2018-02-16T04:01:33.103Z,91.90
2018-02-16T04:04:00.566Z,91.90
2018-02-16T04:06:28.021Z,91.90
2018-02-16T04:08:55.470Z,91.90
2018-02-16T04:11:22.943Z,91.80
2018-02-16T04:13:50.360Z,91.80
2018-02-16T04:16:17.843Z,91.80
2018-02-16T04:18:45.298Z,91.90
2018-02-16T04:21:12.700Z,91.90
2018-02-16T04:23:40.140Z,91.90
2018-02-16T04:26:07.571Z,92.20
2018-02-16T04:28:35.012Z,91.90
2018-02-16T04:31:02.447Z,91.90
2018-02-16T04:33:30.643Z,92.00
2018-02-16T04:35:58.072Z,91.90
2018-02-16T04:38:26.300Z,91.90
2018-02-16T04:40:53.724Z,91.90
2018-02-16T04:43:21.208Z,91.90
2018-02-16T04:45:48.668Z,91.90
2018-02-16T04:48:16.096Z,91.90
2018-02-16T04:50:43.528Z,91.90
2018-02-16T04:53:11.749Z,91.90
2018-02-16T04:55:39.215Z,91.90
2018-02-16T04:58:06.644Z,91.90
2018-02-16T05:00:34.084Z,91.90
2018-02-16T05:03:02.272Z,92.00
2018-02-16T05:05:29.703Z,92.00
2018-02-16T05:07:57.309Z,92.00
2018-02-16T05:10:24.716Z,92.00
2018-02-16T05:12:52.148Z,92.00
2018-02-16T05:15:19.696Z,92.00
2018-02-16T05:17:47.186Z,92.00
2018-02-16T05:20:15.216Z,92.00
2018-02-16T05:22:42.663Z,92.00
2018-02-16T05:25:10.127Z,92.00
2018-02-16T05:27:37.548Z,92.00
2018-02-16T05:30:05.751Z,92.10
2018-02-16T05:32:33.172Z,92.10
2018-02-16T05:35:01.392Z,92.10
2018-02-16T05:37:28.824Z,92.00
2018-02-16T05:39:56.248Z,92.00
2018-02-16T05:42:23.759Z,92.00
2018-02-16T05:44:51.211Z,92.00
2018-02-16T05:47:18.845Z,92.00
2018-02-16T05:49:47.056Z,92.00
2018-02-16T05:52:14.492Z,92.00
2018-02-16T05:54:41.916Z,92.00
2018-02-16T05:57:10.108Z,91.80
2018-02-16T05:59:38.310Z,92.00
2018-02-16T06:02:05.740Z,92.00
2018-02-16T06:04:33.948Z,92.10
2018-02-16T06:07:01.404Z,92.10
2018-02-16T06:09:28.837Z,92.10
2018-02-16T06:11:56.324Z,92.20
2018-02-16T06:14:23.761Z,92.20
2018-02-16T06:16:51.183Z,92.20
2018-02-16T06:19:19.380Z,92.20
2018-02-16T06:21:46.882Z,92.50
2018-02-16T06:24:14.304Z,92.10
2018-02-16T06:26:41.732Z,92.10
2018-02-16T06:29:09.936Z,92.20
2018-02-16T06:31:37.416Z,92.20
2018-02-16T06:34:04.872Z,92.20
2018-02-16T06:36:32.319Z,92.20
2018-02-16T06:38:59.740Z,92.20
2018-02-16T06:41:27.956Z,92.20
2018-02-16T06:43:55.398Z,92.20
2018-02-16T06:46:22.820Z,92.20
2018-02-16T06:48:51.013Z,92.30
2018-02-16T06:51:19.326Z,92.30
2018-02-16T06:53:46.752Z,92.30
2018-02-16T06:56:14.198Z,92.30
2018-02-16T06:58:42.409Z,92.30
2018-02-16T07:01:09.832Z,92.30
2018-02-16T07:03:38.024Z,92.40
2018-02-16T07:06:05.508Z,92.40
2018-02-16T07:08:32.968Z,92.40
2018-02-16T07:11:00.402Z,92.40
2018-02-16T07:13:27.868Z,92.40
2018-02-16T07:15:55.333Z,92.40
2018-02-16T07:18:22.763Z,92.50
2018-02-16T07:20:50.250Z,92.50
2018-02-16T07:23:17.675Z,92.50
2018-02-16T07:25:45.162Z,92.50
2018-02-16T07:28:12.620Z,92.50
2018-02-16T07:30:40.072Z,92.50
2018-02-16T07:33:07.532Z,92.50
2018-02-16T07:35:35.020Z,92.50
2018-02-16T07:38:02.444Z,92.60
2018-02-16T07:40:29.884Z,92.70
2018-02-16T07:42:57.337Z,92.60
2018-02-16T07:45:24.756Z,92.60
2018-02-16T07:47:52.970Z,92.60
2018-02-16T07:50:20.416Z,92.60
2018-02-16T07:52:47.835Z,92.60
2018-02-16T07:55:15.352Z,92.60
2018-02-16T07:57:42.784Z,92.90
2018-02-16T08:00:10.264Z,92.60
2018-02-16T08:02:37.703Z,92.60
2018-02-16T08:05:05.223Z,92.60
2018-02-16T08:07:32.950Z,92.60
2018-02-16T08:10:00.403Z,92.60
2018-02-16T08:12:27.857Z,92.60
2018-02-16T08:14:56.343Z,92.60
2018-02-16T08:17:23.797Z,92.50
2018-02-16T08:19:51.255Z,92.50
2018-02-16T08:22:18.695Z,92.40
2018-02-16T08:24:46.894Z,92.40
2018-02-16T08:27:14.324Z,92.40
2018-02-16T08:29:41.760Z,92.40
2018-02-16T08:32:09.950Z,92.30
2018-02-16T08:34:37.384Z,92.20
2018-02-16T08:37:05.581Z,92.20
2018-02-16T08:39:33.064Z,92.10
2018-02-16T08:42:00.525Z,92.10
2018-02-16T08:44:27.970Z,92.00
2018-02-16T08:46:55.379Z,91.90
2018-02-16T08:49:22.820Z,91.90
2018-02-16T08:51:50.246Z,91.80
2018-02-16T08:54:17.665Z,91.70
2018-02-16T08:56:45.994Z,91.50
2018-02-16T08:59:13.416Z,91.60
2018-02-16T09:01:40.893Z,91.50
2018-02-16T09:04:08.353Z,91.40
2018-02-16T09:06:35.804Z,91.30
2018-02-16T09:09:03.227Z,91.20
2018-02-16T09:11:31.455Z,91.00
2018-02-16T09:13:58.892Z,91.00
2018-02-16T09:16:26.357Z,90.90
2018-02-16T09:18:53.798Z,90.80
2018-02-16T09:21:21.221Z,90.60
2018-02-16T09:23:49.416Z,90.30
2018-02-16T09:26:16.851Z,90.30
2018-02-16T09:28:45.036Z,90.10
2018-02-16T09:31:13.248Z,90.30
2018-02-16T09:33:40.695Z,90.00
2018-02-16T09:36:11.776Z,89.60
2018-02-16T09:38:39.304Z,89.40
2018-02-16T09:41:06.740Z,89.10
2018-02-16T09:43:34.189Z,88.70
2018-02-16T09:46:02.362Z,88.20
2018-02-16T09:48:29.852Z,88.30
2018-02-16T09:50:57.280Z,88.10
2018-02-16T09:53:24.707Z,87.80
2018-02-16T09:55:52.913Z,87.10
2018-02-16T09:58:20.335Z,87.10
2018-02-16T10:00:48.575Z,86.50
2018-02-16T10:03:16.072Z,86.40
2018-02-16T10:05:44.264Z,86.40
2018-02-16T10:08:12.456Z,85.30
2018-02-16T10:10:39.933Z,85.30
2018-02-16T10:13:07.356Z,84.40
2018-02-16T10:15:35.563Z,83.50
2018-02-16T10:18:03.020Z,83.50
2018-02-16T10:20:30.452Z,83.10
2018-02-16T10:22:57.878Z,82.80
2018-02-16T10:25:25.386Z,82.50
2018-02-16T10:27:52.858Z,81.90
2018-02-16T10:30:20.304Z,81.90
2018-02-16T10:32:47.756Z,81.70
2018-02-16T10:35:15.220Z,81.60
2018-02-16T10:37:42.644Z,80.80
2018-02-16T10:40:10.846Z,80.40
2018-02-16T10:42:38.263Z,81.10
2018-02-16T10:45:06.473Z,79.00
2018-02-16T10:47:33.972Z,78.90
2018-02-16T10:50:01.402Z,78.50
2018-02-16T10:52:28.829Z,78.40
2018-02-16T10:54:57.138Z,78.20
2018-02-16T10:57:24.593Z,77.70
2018-02-16T10:59:52.024Z,77.70
2018-02-16T11:02:25.216Z,77.70
2018-02-16T11:04:58.406Z,77.60
2018-02-16T11:07:32.416Z,76.80
2018-02-16T11:09:59.897Z,76.80
2018-02-16T11:12:27.324Z,76.40
2018-02-16T11:14:54.866Z,76.40
2018-02-16T11:17:23.089Z,76.30
2018-02-16T11:19:50.520Z,76.20
2018-02-16T11:22:18.007Z,76.00
2018-02-16T11:24:45.481Z,75.90
2018-02-16T11:27:12.892Z,75.70
2018-02-16T11:29:40.328Z,75.40
2018-02-16T11:32:08.524Z,75.10
2018-02-16T11:34:35.956Z,75.10
2018-02-16T11:37:04.174Z,74.90
2018-02-16T11:39:31.620Z,74.90
2018-02-16T11:41:59.848Z,74.60
2018-02-16T11:44:27.385Z,74.60
2018-02-16T11:46:54.864Z,74.70
2018-02-16T11:49:23.060Z,74.40
2018-02-16T11:51:51.296Z,74.30
2018-02-16T11:54:18.735Z,74.30
2018-02-16T11:56:46.160Z,73.80
2018-02-16T11:59:13.584Z,73.20
2018-02-16T12:01:41.014Z,72.80
2018-02-16T12:04:08.457Z,72.30
2018-02-16T12:06:35.915Z,71.30
2018-02-16T12:09:03.350Z,70.90
2018-02-16T12:11:30.772Z,70.90
2018-02-16T12:13:58.292Z,70.50
2018-02-16T12:16:25.748Z,69.90
2018-02-16T12:18:53.204Z,70.20
2018-02-16T12:21:20.665Z,69.40
2018-02-16T12:23:48.125Z,69.30
2018-02-16T12:26:15.552Z,69.10
2018-02-16T12:28:42.988Z,68.70
2018-02-16T12:31:11.184Z,66.80
2018-02-16T12:33:38.761Z,66.70
2018-02-16T12:36:06.170Z,66.40
2018-02-16T12:38:33.678Z,65.50
2018-02-16T12:41:01.118Z,64.30
2018-02-16T12:43:28.598Z,63.60
2018-02-16T12:45:56.023Z,63.80
2018-02-16T12:48:23.447Z,63.80
2018-02-16T12:50:51.679Z,63.00
2018-02-16T12:53:19.143Z,63.00
2018-02-16T12:55:46.596Z,62.70
2018-02-16T12:58:14.034Z,62.80
2018-02-16T13:00:41.457Z,63.00
2018-02-16T13:03:08.884Z,62.70
2018-02-16T13:05:36.437Z,62.60
2018-02-16T13:08:03.854Z,62.40
2018-02-16T13:10:31.272Z,61.90
2018-02-16T13:13:00.222Z,61.10
2018-02-16T13:15:27.698Z,61.10
2018-02-16T13:17:55.122Z,60.80
2018-02-16T13:20:22.612Z,61.40
2018-02-16T13:22:50.036Z,61.30
2018-02-16T13:25:17.516Z,61.20
2018-02-16T13:27:44.952Z,61.60
2018-02-16T13:30:19.064Z,61.50
2018-02-16T13:32:46.602Z,61.30
2018-02-16T13:35:14.000Z,61.40
2018-02-16T13:37:41.456Z,61.20
2018-02-16T13:40:08.916Z,61.00
2018-02-16T13:42:36.354Z,60.90
2018-02-16T13:45:03.768Z,60.60
2018-02-16T13:47:31.204Z,60.60
2018-02-16T13:49:58.647Z,60.30
2018-02-16T13:52:26.065Z,59.70
2018-02-16T13:54:54.276Z,58.50
2018-02-16T13:57:21.732Z,58.50
2018-02-16T13:59:49.224Z,58.40
2018-02-16T14:02:16.700Z,58.60
2018-02-16T14:04:44.096Z,58.20
2018-02-16T14:07:11.564Z,57.10
2018-02-16T14:09:39.115Z,56.30
2018-02-16T14:12:06.542Z,56.20
2018-02-16T14:14:34.732Z,55.70
2018-02-16T14:17:02.181Z,55.70
2018-02-16T14:19:29.665Z,55.50
2018-02-16T14:21:57.120Z,55.40
2018-02-16T14:24:24.572Z,55.30
2018-02-16T14:26:51.994Z,55.00
2018-02-16T14:29:20.185Z,53.60
2018-02-16T14:31:47.622Z,53.60
2018-02-16T14:34:15.817Z,53.90
2018-02-16T14:36:43.281Z,53.80
2018-02-16T14:39:10.721Z,53.80
2018-02-16T14:41:38.907Z,53.60
2018-02-16T14:44:06.390Z,53.70
2018-02-16T14:46:33.836Z,53.70
2018-02-16T14:49:01.294Z,53.60
2018-02-16T14:51:28.755Z,53.80
2018-02-16T14:53:56.207Z,53.80
2018-02-16T14:56:23.676Z,53.60
2018-02-16T14:58:51.128Z,53.60
2018-02-16T15:01:18.592Z,53.80
2018-02-16T15:03:46.048Z,54.20
2018-02-16T15:06:13.506Z,54.30
2018-02-16T15:08:41.053Z,54.40
2018-02-16T15:11:08.470Z,54.70
2018-02-16T15:13:36.672Z,55.10
2018-02-16T15:16:04.116Z,55.00
2018-02-16T15:18:31.565Z,55.20
2018-02-16T15:20:59.759Z,55.70
2018-02-16T15:23:27.211Z,55.60
2018-02-16T15:25:54.696Z,55.70
2018-02-16T15:28:22.135Z,55.70
2018-02-16T15:30:49.650Z,56.60
2018-02-16T15:33:17.044Z,56.70
2018-02-16T15:35:44.552Z,57.00
2018-02-16T15:38:13.506Z,57.10
2018-02-16T15:40:40.940Z,57.00
2018-02-16T15:43:09.128Z,57.10
2018-02-16T15:45:36.578Z,57.10
2018-02-16T15:48:04.060Z,57.20
2018-02-16T15:50:31.492Z,57.40
2018-02-16T15:52:58.998Z,57.90
2018-02-16T15:55:26.408Z,57.90
2018-02-16T15:57:53.892Z,58.00
2018-02-16T16:00:21.339Z,58.20
2018-02-16T16:02:48.763Z,58.40
2018-02-16T16:05:16.972Z,58.50
2018-02-16T16:07:44.426Z,58.50
2018-02-16T16:10:11.848Z,58.50
2018-02-16T16:12:40.068Z,58.60
2018-02-16T16:15:07.532Z,58.60
2018-02-16T16:17:34.984Z,58.60
2018-02-16T16:20:02.432Z,58.60
2018-02-16T16:22:29.904Z,58.80
2018-02-16T16:24:57.328Z,59.70
2018-02-16T16:27:24.756Z,59.40
2018-02-16T16:29:52.963Z,58.80
2018-02-16T16:32:20.380Z,59.30
2018-02-16T16:34:47.903Z,59.50
2018-02-16T16:37:15.356Z,60.30
2018-02-16T16:39:42.796Z,59.90
2018-02-16T16:42:10.220Z,60.10
2018-02-16T16:44:38.423Z,61.40
2018-02-16T16:47:05.848Z,61.10
2018-02-16T16:49:34.048Z,61.90
2018-02-16T16:52:01.481Z,61.90
2018-02-16T16:54:28.921Z,62.10
2018-02-16T16:56:57.116Z,62.70
2018-02-16T16:59:25.329Z,63.20
2018-02-16T17:01:52.793Z,63.20
2018-02-16T17:04:20.218Z,63.50
2018-02-16T17:06:48.419Z,64.30
2018-02-16T17:09:15.842Z,64.30
2018-02-16T17:11:44.028Z,65.10
2018-02-16T17:14:11.464Z,65.00
2018-02-16T17:16:39.692Z,66.30
2018-02-16T17:19:07.132Z,65.60
2018-02-16T17:21:34.620Z,66.00
2018-02-16T17:24:02.057Z,66.40
2018-02-16T17:26:29.472Z,66.70
2018-02-16T17:28:57.697Z,67.30
2018-02-16T17:31:25.156Z,67.20
2018-02-16T17:33:52.610Z,67.60
2018-02-16T17:36:20.069Z,67.80
2018-02-16T17:38:47.499Z,68.20
2018-02-16T17:41:14.949Z,69.30
2018-02-16T17:43:42.381Z,68.80
2018-02-16T17:46:10.616Z,69.40
2018-02-16T17:48:38.040Z,69.30
2018-02-16T17:51:05.488Z,69.50
2018-02-16T17:53:33.678Z,69.80
2018-02-16T17:56:01.167Z,69.70
2018-02-16T17:58:28.612Z,69.90
2018-02-16T18:00:56.040Z,70.10
2018-02-16T18:03:23.472Z,70.30
2018-02-16T18:05:51.710Z,70.90
2018-02-16T18:08:19.142Z,70.80
2018-02-16T18:10:46.624Z,70.90
2018-02-16T18:13:14.076Z,71.00
2018-02-16T18:15:42.280Z,71.10
2018-02-16T18:18:09.714Z,71.10
2018-02-16T18:20:37.927Z,71.50
2018-02-16T18:23:05.374Z,71.50
2018-02-16T18:25:32.813Z,71.80
2018-02-16T18:28:00.242Z,72.00
2018-02-16T18:30:28.468Z,72.50
2018-02-16T18:32:55.888Z,72.40
2018-02-16T18:35:24.104Z,72.60
2018-02-16T18:37:51.570Z,72.60
2018-02-16T18:40:18.995Z,72.90
2018-02-16T18:42:46.431Z,73.10
2018-02-16T18:45:13.926Z,73.30
2018-02-16T18:47:41.392Z,73.50
2018-02-16T18:50:08.850Z,73.80
2018-02-16T18:52:36.284Z,73.80
2018-02-16T18:55:03.713Z,74.00
2018-02-16T18:57:31.975Z,74.50
2018-02-16T19:00:00.195Z,74.40
2018-02-16T19:02:27.625Z,74.50
2018-02-16T19:04:55.837Z,74.70
2018-02-16T19:07:23.300Z,74.70
2018-02-16T19:09:50.726Z,74.80
2018-02-16T19:12:18.220Z,75.00
2018-02-16T19:14:46.608Z,75.30
2018-02-16T19:17:14.043Z,75.50
2018-02-16T19:19:41.464Z,75.60
2018-02-16T19:22:09.694Z,75.80
2018-02-16T19:24:37.151Z,75.80
2018-02-16T19:27:04.602Z,76.00
2018-02-16T19:29:32.028Z,76.10
2018-02-16T19:31:59.520Z,76.30
2018-02-16T19:34:26.968Z,76.40
2018-02-16T19:36:54.413Z,76.50
2018-02-16T19:39:21.840Z,76.60
2018-02-16T19:41:50.035Z,76.80
2018-02-16T19:44:17.519Z,76.70
2018-02-16T19:46:44.941Z,76.80
2018-02-16T19:49:12.364Z,76.90
2018-02-16T19:51:39.888Z,77.10
2018-02-16T19:54:07.346Z,77.20
2018-02-16T19:56:34.800Z,77.40
2018-02-16T19:59:02.263Z,77.50
2018-02-16T20:01:29.688Z,77.60
2018-02-16T20:03:57.121Z,77.70
2018-02-16T20:06:25.332Z,78.00
2018-02-16T20:08:52.788Z,78.00
2018-02-16T20:11:20.223Z,78.00
2018-02-16T20:13:48.424Z,78.10
2018-02-16T20:16:15.892Z,78.00
2018-02-16T20:18:43.348Z,78.00
2018-02-16T20:21:10.845Z,78.20
2018-02-16T20:23:39.116Z,78.50
2018-02-16T20:26:06.632Z,78.50
2018-02-16T20:28:34.134Z,78.70
2018-02-16T20:31:02.369Z,79.10
2018-02-16T20:33:29.803Z,78.70
2018-02-16T20:35:57.232Z,79.00
2018-02-16T20:38:24.660Z,79.30
2018-02-16T20:40:52.100Z,79.50
2018-02-16T20:43:19.533Z,79.70
2018-02-16T20:45:47.020Z,79.80
2018-02-16T20:48:14.493Z,80.00
2018-02-16T20:50:41.961Z,80.00
2018-02-16T20:53:09.396Z,80.00
2018-02-16T20:55:36.824Z,80.10
2018-02-16T20:58:04.269Z,80.20
2018-02-16T21:00:32.480Z,80.40
2018-02-16T21:02:59.928Z,80.40
2018-02-16T21:05:27.366Z,80.40
2018-02-16T21:07:54.803Z,80.50
2018-02-16T21:10:22.996Z,80.70
2018-02-16T21:12:50.437Z,80.70
2018-02-16T21:15:18.649Z,80.70
2018-02-16T21:17:46.080Z,80.60
2018-02-16T21:20:14.276Z,80.90
2018-02-16T21:22:41.693Z,80.90
2018-02-16T21:25:09.900Z,81.00
2018-02-16T21:27:37.368Z,81.00
2018-02-16T21:30:04.795Z,81.10
2018-02-16T21:32:32.225Z,81.10
2018-02-16T21:34:59.688Z,81.20
2018-02-16T21:37:27.880Z,81.40
2018-02-16T21:39:56.085Z,81.50
2018-02-16T21:42:23.512Z,81.40
2018-02-16T21:44:51.720Z,81.60
2018-02-16T21:47:19.184Z,81.60
2018-02-16T21:49:46.616Z,81.60
2018-02-16T21:52:14.040Z,81.70
2018-02-16T21:54:42.228Z,82.70
2018-02-16T21:57:10.452Z,81.90
2018-02-16T21:59:37.864Z,81.90
2018-02-16T22:02:06.052Z,82.00
2018-02-16T22:04:33.531Z,82.00
2018-02-16T22:07:00.956Z,82.10
2018-02-16T22:09:28.445Z,82.10
2018-02-16T22:11:55.876Z,82.70
2018-02-16T22:14:23.358Z,82.10
2018-02-16T22:16:50.812Z,82.40
2018-02-16T22:19:18.291Z,82.40
2018-02-16T22:21:45.724Z,82.50
2018-02-16T22:24:13.183Z,82.50
2018-02-16T22:26:41.364Z,83.20
2018-02-16T22:29:08.812Z,82.50
2018-02-16T22:31:36.273Z,82.60
2018-02-16T22:34:03.709Z,82.60
2018-02-16T22:36:31.132Z,82.60
2018-02-16T22:38:58.650Z,82.80
2018-02-16T22:41:26.081Z,82.80
2018-02-16T22:43:53.500Z,82.70
2018-02-16T22:46:20.924Z,82.70
2018-02-16T22:48:48.380Z,82.70
2018-02-16T22:51:15.813Z,82.80
2018-02-16T22:53:43.288Z,82.90
2018-02-16T22:56:10.737Z,83.00
2018-02-16T22:58:38.155Z,83.10
2018-02-16T23:01:06.376Z,83.20
2018-02-16T23:03:33.832Z,83.20
2018-02-16T23:06:01.260Z,83.20
2018-02-16T23:08:28.684Z,83.30
2018-02-16T23:10:56.204Z,83.20
2018-02-16T23:13:23.672Z,83.30
2018-02-16T23:15:51.105Z,83.20
2018-02-16T23:18:18.584Z,83.20
2018-02-16T23:20:46.023Z,83.30
2018-02-16T23:23:13.454Z,83.30
2018-02-16T23:25:41.656Z,83.40
2018-02-16T23:28:09.087Z,83.40
2018-02-16T23:30:37.286Z,83.40
2018-02-16T23:33:04.732Z,83.40
2018-02-16T23:35:32.212Z,83.50
2018-02-16T23:37:59.640Z,83.60
2018-02-16T23:40:27.072Z,83.70
2018-02-16T23:42:55.219Z,83.70
2018-02-16T23:45:22.640Z,83.80
2018-02-16T23:47:50.111Z,83.90
2018-02-16T23:50:17.512Z,83.80
2018-02-16T23:52:45.009Z,83.90
2018-02-16T23:55:12.534Z,84.00
2018-02-16T23:57:39.964Z,83.80
